sensor_id;sensor_type;location;lat;lon;timestamp;P1;durP1;ratioP1;P2;durP2;ratioP2
8982;SDS011;20979;59.850;10.660;2022-10-31T00:03:36;16.40;;;5.87;;
8982;SDS011;20979;59.850;10.660;2022-10-31T00:21:52;40.30;;;7.23;;
8982;SDS011;20979;59.850;10.660;2022-10-31T00:24:34;35.30;;;6.77;;
8982;SDS011;20979;59.850;10.660;2022-10-31T01:09:44;28.23;;;6.73;;
8982;SDS011;20979;59.850;10.660;2022-10-31T01:24:00;69.07;;;8.87;;
8982;SDS011;20979;59.850;10.660;2022-10-31T01:47:49;39.70;;;8.20;;
8982;SDS011;20979;59.850;10.660;2022-10-31T01:59:45;27.87;;;6.73;;
8982;SDS011;20979;59.850;10.660;2022-10-31T02:46:35;29.67;;;6.17;;
8982;SDS011;20979;59.850;10.660;2022-10-31T02:55:44;11.27;;;5.73;;
8982;SDS011;20979;59.850;10.660;2022-10-31T03:17:07;24.50;;;6.90;;
8982;SDS011;20979;59.850;10.660;2022-10-31T03:22:33;33.53;;;7.50;;
8982;SDS011;20979;59.850;10.660;2022-10-31T03:37:17;11.93;;;5.70;;
8982;SDS011;20979;59.850;10.660;2022-10-31T03:43:03;111.90;;;11.53;;
8982;SDS011;20979;59.850;10.660;2022-10-31T03:48:52;45.30;;;7.33;;
8982;SDS011;20979;59.850;10.660;2022-10-31T03:51:21;11.97;;;5.70;;
8982;SDS011;20979;59.850;10.660;2022-10-31T04:08:51;7.20;;;5.60;;
8982;SDS011;20979;59.850;10.660;2022-10-31T04:11:21;7.53;;;5.60;;
8982;SDS011;20979;59.850;10.660;2022-10-31T04:13:50;5.70;;;5.20;;
8982;SDS011;20979;59.850;10.660;2022-10-31T04:19:48;7.33;;;6.50;;
8982;SDS011;20979;59.850;10.660;2022-10-31T04:40:38;8.93;;;5.13;;
8982;SDS011;20979;59.850;10.660;2022-10-31T04:58:49;8.13;;;6.03;;
8982;SDS011;20979;59.850;10.660;2022-10-31T05:08:09;23.30;;;9.33;;
8982;SDS011;20979;59.850;10.660;2022-10-31T05:10:40;10.17;;;8.30;;
8982;SDS011;20979;59.850;10.660;2022-10-31T05:19:04;13.10;;;6.90;;
8982;SDS011;20979;59.850;10.660;2022-10-31T05:21:39;12.40;;;8.70;;
8982;SDS011;20979;59.850;10.660;2022-10-31T05:24:07;16.03;;;7.63;;
8982;SDS011;20979;59.850;10.660;2022-10-31T05:26:49;15.80;;;7.70;;
8982;SDS011;20979;59.850;10.660;2022-10-31T05:29:17;8.83;;;6.77;;
8982;SDS011;20979;59.850;10.660;2022-10-31T05:40:55;6.50;;;5.90;;
8982;SDS011;20979;59.850;10.660;2022-10-31T05:46:42;8.57;;;6.60;;
8982;SDS011;20979;59.850;10.660;2022-10-31T05:52:33;417.17;;;31.73;;
8982;SDS011;20979;59.850;10.660;2022-10-31T05:55:07;253.30;;;22.37;;
8982;SDS011;20979;59.850;10.660;2022-10-31T06:00:49;490.43;;;35.67;;
8982;SDS011;20979;59.850;10.660;2022-10-31T06:03:45;220.10;;;18.27;;
8982;SDS011;20979;59.850;10.660;2022-10-31T06:15:55;14.80;;;8.80;;
8982;SDS011;20979;59.850;10.660;2022-10-31T06:18:37;180.40;;;19.40;;
8982;SDS011;20979;59.850;10.660;2022-10-31T06:21:04;32.57;;;10.87;;
8982;SDS011;20979;59.850;10.660;2022-10-31T06:23:32;132.30;;;14.43;;
8982;SDS011;20979;59.850;10.660;2022-10-31T06:25:59;108.37;;;12.83;;
8982;SDS011;20979;59.850;10.660;2022-10-31T06:28:27;170.00;;;17.03;;
8982;SDS011;20979;59.850;10.660;2022-10-31T06:30:56;98.87;;;11.97;;
8982;SDS011;20979;59.850;10.660;2022-10-31T06:33:24;40.13;;;9.83;;
8982;SDS011;20979;59.850;10.660;2022-10-31T06:35:52;48.07;;;10.57;;
8982;SDS011;20979;59.850;10.660;2022-10-31T06:38:20;25.80;;;9.07;;
8982;SDS011;20979;59.850;10.660;2022-10-31T06:40:47;31.53;;;8.97;;
8982;SDS011;20979;59.850;10.660;2022-10-31T06:43:15;45.90;;;10.07;;
8982;SDS011;20979;59.850;10.660;2022-10-31T07:25:55;11.10;;;9.63;;
8982;SDS011;20979;59.850;10.660;2022-10-31T07:30:01;15.60;;;11.47;;
8982;SDS011;20979;59.850;10.660;2022-10-31T07:31:46;8.27;;;7.27;;
8982;SDS011;20979;59.850;10.660;2022-10-31T07:37:21;4.47;;;3.93;;
8982;SDS011;20979;59.850;10.660;2022-10-31T07:39:48;4.43;;;4.03;;
8982;SDS011;20979;59.850;10.660;2022-10-31T07:51:31;4.80;;;3.20;;
8982;SDS011;20979;59.850;10.660;2022-10-31T08:03:38;9.97;;;8.63;;
8982;SDS011;20979;59.850;10.660;2022-10-31T08:09:36;13.60;;;9.13;;
8982;SDS011;20979;59.850;10.660;2022-10-31T08:15:24;6.97;;;5.97;;
8982;SDS011;20979;59.850;10.660;2022-10-31T08:21:09;4.00;;;3.50;;
8982;SDS011;20979;59.850;10.660;2022-10-31T08:23:36;4.00;;;3.10;;
8982;SDS011;20979;59.850;10.660;2022-10-31T08:29:00;2.90;;;2.47;;
8982;SDS011;20979;59.850;10.660;2022-10-31T08:52:43;14.30;;;8.47;;
8982;SDS011;20979;59.850;10.660;2022-10-31T09:17:07;13.83;;;10.17;;
8982;SDS011;20979;59.850;10.660;2022-10-31T09:19:55;9.03;;;7.47;;
8982;SDS011;20979;59.850;10.660;2022-10-31T09:22:23;7.40;;;6.60;;
8982;SDS011;20979;59.850;10.660;2022-10-31T09:24:50;9.57;;;7.80;;
8982;SDS011;20979;59.850;10.660;2022-10-31T09:30:35;7.90;;;6.70;;
8982;SDS011;20979;59.850;10.660;2022-10-31T09:33:04;9.77;;;7.23;;
8982;SDS011;20979;59.850;10.660;2022-10-31T09:35:32;10.00;;;7.33;;
8982;SDS011;20979;59.850;10.660;2022-10-31T09:38:00;10.43;;;8.07;;
8982;SDS011;20979;59.850;10.660;2022-10-31T09:40:29;10.17;;;8.17;;
8982;SDS011;20979;59.850;10.660;2022-10-31T09:42:59;8.70;;;7.70;;
8982;SDS011;20979;59.850;10.660;2022-10-31T09:48:41;6.93;;;6.23;;
8982;SDS011;20979;59.850;10.660;2022-10-31T09:51:12;7.10;;;6.40;;
8982;SDS011;20979;59.850;10.660;2022-10-31T09:53:53;7.80;;;6.47;;
8982;SDS011;20979;59.850;10.660;2022-10-31T09:56:42;8.00;;;6.30;;
8982;SDS011;20979;59.850;10.660;2022-10-31T09:59:11;7.63;;;5.90;;
8982;SDS011;20979;59.850;10.660;2022-10-31T10:01:49;8.03;;;6.93;;
8982;SDS011;20979;59.850;10.660;2022-10-31T10:10:50;7.63;;;6.00;;
8982;SDS011;20979;59.850;10.660;2022-10-31T10:13:32;8.67;;;5.83;;
8982;SDS011;20979;59.850;10.660;2022-10-31T10:16:03;10.10;;;6.33;;
8982;SDS011;20979;59.850;10.660;2022-10-31T10:18:35;10.20;;;6.67;;
8982;SDS011;20979;59.850;10.660;2022-10-31T10:21:09;7.80;;;6.00;;
8982;SDS011;20979;59.850;10.660;2022-10-31T10:23:42;6.83;;;6.03;;
8982;SDS011;20979;59.850;10.660;2022-10-31T10:26:15;7.77;;;6.00;;
8982;SDS011;20979;59.850;10.660;2022-10-31T10:28:44;5.97;;;5.03;;
8982;SDS011;20979;59.850;10.660;2022-10-31T10:31:12;6.10;;;5.33;;
8982;SDS011;20979;59.850;10.660;2022-10-31T10:33:40;5.50;;;4.77;;
8982;SDS011;20979;59.850;10.660;2022-10-31T10:36:10;5.03;;;4.43;;
8982;SDS011;20979;59.850;10.660;2022-10-31T10:38:48;6.37;;;4.40;;
8982;SDS011;20979;59.850;10.660;2022-10-31T10:41:22;7.17;;;5.00;;
8982;SDS011;20979;59.850;10.660;2022-10-31T10:43:50;5.40;;;4.50;;
8982;SDS011;20979;59.850;10.660;2022-10-31T10:46:17;5.07;;;4.57;;
8982;SDS011;20979;59.850;10.660;2022-10-31T10:49:14;6.80;;;4.70;;
8982;SDS011;20979;59.850;10.660;2022-10-31T10:51:44;5.10;;;4.20;;
8982;SDS011;20979;59.850;10.660;2022-10-31T10:54:18;6.37;;;4.90;;
8982;SDS011;20979;59.850;10.660;2022-10-31T10:56:54;6.93;;;4.47;;
8982;SDS011;20979;59.850;10.660;2022-10-31T10:59:25;5.60;;;4.30;;
8982;SDS011;20979;59.850;10.660;2022-10-31T11:01:54;6.83;;;4.33;;
8982;SDS011;20979;59.850;10.660;2022-10-31T11:04:24;5.90;;;4.33;;
8982;SDS011;20979;59.850;10.660;2022-10-31T11:06:58;5.37;;;4.13;;
8982;SDS011;20979;59.850;10.660;2022-10-31T11:09:26;5.33;;;3.83;;
8982;SDS011;20979;59.850;10.660;2022-10-31T11:11:55;4.23;;;3.07;;
8982;SDS011;20979;59.850;10.660;2022-10-31T11:14:22;5.27;;;4.20;;
8982;SDS011;20979;59.850;10.660;2022-10-31T11:16:51;5.90;;;3.40;;
8982;SDS011;20979;59.850;10.660;2022-10-31T11:19:27;4.00;;;2.40;;
8982;SDS011;20979;59.850;10.660;2022-10-31T11:34:49;5.17;;;3.67;;
8982;SDS011;20979;59.850;10.660;2022-10-31T11:40:50;6.57;;;3.60;;
8982;SDS011;20979;59.850;10.660;2022-10-31T11:56:12;5.47;;;3.30;;
8982;SDS011;20979;59.850;10.660;2022-10-31T11:58:40;8.50;;;3.47;;
8982;SDS011;20979;59.850;10.660;2022-10-31T12:01:21;4.07;;;3.03;;
8982;SDS011;20979;59.850;10.660;2022-10-31T12:04:07;4.27;;;3.10;;
8982;SDS011;20979;59.850;10.660;2022-10-31T12:06:52;4.00;;;2.80;;
8982;SDS011;20979;59.850;10.660;2022-10-31T12:09:54;3.87;;;3.10;;
8982;SDS011;20979;59.850;10.660;2022-10-31T12:24:16;4.53;;;2.80;;
8982;SDS011;20979;59.850;10.660;2022-10-31T12:26:51;4.53;;;2.93;;
8982;SDS011;20979;59.850;10.660;2022-10-31T12:29:26;6.43;;;3.07;;
8982;SDS011;20979;59.850;10.660;2022-10-31T13:56:12;3.70;;;2.07;;
8982;SDS011;20979;59.850;10.660;2022-10-31T14:20:39;4.50;;;1.87;;
8982;SDS011;20979;59.850;10.660;2022-10-31T14:26:36;5.03;;;1.90;;
8982;SDS011;20979;59.850;10.660;2022-10-31T14:29:22;3.07;;;1.50;;
8982;SDS011;20979;59.850;10.660;2022-10-31T14:31:57;5.73;;;1.90;;
8982;SDS011;20979;59.850;10.660;2022-10-31T14:40:32;3.63;;;1.80;;
8982;SDS011;20979;59.850;10.660;2022-10-31T14:43:08;3.33;;;1.43;;
8982;SDS011;20979;59.850;10.660;2022-10-31T14:45:41;5.90;;;2.63;;
8982;SDS011;20979;59.850;10.660;2022-10-31T14:48:13;5.40;;;1.77;;
8982;SDS011;20979;59.850;10.660;2022-10-31T14:50:47;5.13;;;2.00;;
8982;SDS011;20979;59.850;10.660;2022-10-31T14:53:17;6.17;;;2.00;;
8982;SDS011;20979;59.850;10.660;2022-10-31T14:55:47;4.77;;;2.23;;
8982;SDS011;20979;59.850;10.660;2022-10-31T14:58:16;4.73;;;2.00;;
8982;SDS011;20979;59.850;10.660;2022-10-31T15:00:47;4.30;;;1.97;;
8982;SDS011;20979;59.850;10.660;2022-10-31T15:03:15;4.47;;;1.90;;
8982;SDS011;20979;59.850;10.660;2022-10-31T15:05:45;3.77;;;1.80;;
8982;SDS011;20979;59.850;10.660;2022-10-31T15:08:14;5.40;;;2.10;;
8982;SDS011;20979;59.850;10.660;2022-10-31T15:10:54;6.40;;;2.50;;
8982;SDS011;20979;59.850;10.660;2022-10-31T15:13:21;6.10;;;3.30;;
8982;SDS011;20979;59.850;10.660;2022-10-31T15:15:51;8.10;;;3.37;;
8982;SDS011;20979;59.850;10.660;2022-10-31T15:18:20;7.33;;;3.60;;
8982;SDS011;20979;59.850;10.660;2022-10-31T15:20:48;6.10;;;2.77;;
8982;SDS011;20979;59.850;10.660;2022-10-31T15:23:17;4.73;;;2.33;;
8982;SDS011;20979;59.850;10.660;2022-10-31T15:25:47;5.80;;;1.90;;
8982;SDS011;20979;59.850;10.660;2022-10-31T15:28:19;7.03;;;1.90;;
8982;SDS011;20979;59.850;10.660;2022-10-31T15:30:51;4.50;;;1.80;;
8982;SDS011;20979;59.850;10.660;2022-10-31T15:33:19;7.47;;;2.30;;
8982;SDS011;20979;59.850;10.660;2022-10-31T15:35:54;8.63;;;2.47;;
8982;SDS011;20979;59.850;10.660;2022-10-31T15:38:21;5.93;;;2.10;;
8982;SDS011;20979;59.850;10.660;2022-10-31T15:40:56;6.10;;;2.27;;
8982;SDS011;20979;59.850;10.660;2022-10-31T15:43:25;7.57;;;2.23;;
8982;SDS011;20979;59.850;10.660;2022-10-31T15:45:52;8.23;;;2.53;;
8982;SDS011;20979;59.850;10.660;2022-10-31T15:48:21;5.47;;;2.10;;
8982;SDS011;20979;59.850;10.660;2022-10-31T15:50:50;5.67;;;2.50;;
8982;SDS011;20979;59.850;10.660;2022-10-31T15:53:18;5.87;;;2.23;;
8982;SDS011;20979;59.850;10.660;2022-10-31T15:55:47;6.10;;;2.40;;
8982;SDS011;20979;59.850;10.660;2022-10-31T15:58:16;5.80;;;2.10;;
8982;SDS011;20979;59.850;10.660;2022-10-31T16:00:45;7.13;;;2.20;;
8982;SDS011;20979;59.850;10.660;2022-10-31T16:03:23;5.40;;;2.27;;
8982;SDS011;20979;59.850;10.660;2022-10-31T16:05:52;3.83;;;2.07;;
8982;SDS011;20979;59.850;10.660;2022-10-31T16:08:23;6.23;;;2.20;;
8982;SDS011;20979;59.850;10.660;2022-10-31T16:10:52;7.67;;;2.33;;
8982;SDS011;20979;59.850;10.660;2022-10-31T16:13:22;6.50;;;2.37;;
8982;SDS011;20979;59.850;10.660;2022-10-31T16:15:53;7.03;;;2.30;;
8982;SDS011;20979;59.850;10.660;2022-10-31T16:18:21;5.53;;;2.27;;
8982;SDS011;20979;59.850;10.660;2022-10-31T16:20:49;7.13;;;2.43;;
8982;SDS011;20979;59.850;10.660;2022-10-31T16:23:17;6.17;;;2.27;;
8982;SDS011;20979;59.850;10.660;2022-10-31T16:25:45;7.20;;;2.80;;
8982;SDS011;20979;59.850;10.660;2022-10-31T16:28:14;4.60;;;2.10;;
8982;SDS011;20979;59.850;10.660;2022-10-31T16:30:42;4.90;;;2.07;;
8982;SDS011;20979;59.850;10.660;2022-10-31T16:33:27;7.73;;;2.77;;
8982;SDS011;20979;59.850;10.660;2022-10-31T16:35:58;6.10;;;2.33;;
8982;SDS011;20979;59.850;10.660;2022-10-31T16:38:27;6.87;;;2.00;;
8982;SDS011;20979;59.850;10.660;2022-10-31T16:40:55;4.87;;;2.13;;
8982;SDS011;20979;59.850;10.660;2022-10-31T16:43:22;5.07;;;2.80;;
8982;SDS011;20979;59.850;10.660;2022-10-31T16:45:50;7.27;;;3.63;;
8982;SDS011;20979;59.850;10.660;2022-10-31T16:48:19;18.43;;;11.50;;
8982;SDS011;20979;59.850;10.660;2022-10-31T16:50:49;12.63;;;6.90;;
8982;SDS011;20979;59.850;10.660;2022-10-31T16:53:16;9.10;;;4.00;;
8982;SDS011;20979;59.850;10.660;2022-10-31T16:55:44;7.23;;;3.73;;
8982;SDS011;20979;59.850;10.660;2022-10-31T16:58:19;10.00;;;3.50;;
8982;SDS011;20979;59.850;10.660;2022-10-31T17:01:20;10.60;;;3.33;;
8982;SDS011;20979;59.850;10.660;2022-10-31T17:04:07;7.13;;;2.93;;
8982;SDS011;20979;59.850;10.660;2022-10-31T17:06:45;11.57;;;2.97;;
8982;SDS011;20979;59.850;10.660;2022-10-31T17:09:12;8.10;;;3.20;;
8982;SDS011;20979;59.850;10.660;2022-10-31T17:11:42;7.57;;;3.37;;
8982;SDS011;20979;59.850;10.660;2022-10-31T17:14:15;5.57;;;2.93;;
8982;SDS011;20979;59.850;10.660;2022-10-31T17:16:53;6.13;;;2.90;;
8982;SDS011;20979;59.850;10.660;2022-10-31T17:19:26;7.90;;;3.80;;
8982;SDS011;20979;59.850;10.660;2022-10-31T17:21:54;12.80;;;3.90;;
8982;SDS011;20979;59.850;10.660;2022-10-31T17:27:25;11.97;;;4.23;;
8982;SDS011;20979;59.850;10.660;2022-10-31T17:30:07;9.13;;;3.80;;
8982;SDS011;20979;59.850;10.660;2022-10-31T17:32:34;10.43;;;3.90;;
8982;SDS011;20979;59.850;10.660;2022-10-31T17:35:02;10.47;;;5.20;;
8982;SDS011;20979;59.850;10.660;2022-10-31T17:37:54;12.07;;;4.50;;
8982;SDS011;20979;59.850;10.660;2022-10-31T17:43:38;14.77;;;5.10;;
8982;SDS011;20979;59.850;10.660;2022-10-31T17:46:07;13.07;;;5.20;;
8982;SDS011;20979;59.850;10.660;2022-10-31T17:49:04;13.77;;;4.90;;
8982;SDS011;20979;59.850;10.660;2022-10-31T17:51:33;10.80;;;4.47;;
8982;SDS011;20979;59.850;10.660;2022-10-31T17:59:41;11.03;;;4.50;;
8982;SDS011;20979;59.850;10.660;2022-10-31T18:02:09;8.33;;;4.10;;
8982;SDS011;20979;59.850;10.660;2022-10-31T18:04:53;8.80;;;3.83;;
8982;SDS011;20979;59.850;10.660;2022-10-31T18:10:15;11.13;;;3.93;;
8982;SDS011;20979;59.850;10.660;2022-10-31T18:12:52;13.47;;;4.03;;
8982;SDS011;20979;59.850;10.660;2022-10-31T18:15:29;14.10;;;4.50;;
8982;SDS011;20979;59.850;10.660;2022-10-31T18:17:56;11.27;;;4.50;;
8982;SDS011;20979;59.850;10.660;2022-10-31T18:20:31;17.93;;;6.10;;
8982;SDS011;20979;59.850;10.660;2022-10-31T18:22:59;19.20;;;7.93;;
8982;SDS011;20979;59.850;10.660;2022-10-31T18:25:37;15.63;;;7.23;;
8982;SDS011;20979;59.850;10.660;2022-10-31T18:28:07;14.30;;;7.50;;
8982;SDS011;20979;59.850;10.660;2022-10-31T18:30:50;11.53;;;5.30;;
8982;SDS011;20979;59.850;10.660;2022-10-31T18:33:17;9.87;;;3.83;;
8982;SDS011;20979;59.850;10.660;2022-10-31T18:35:44;8.40;;;4.10;;
8982;SDS011;20979;59.850;10.660;2022-10-31T18:38:22;8.47;;;4.00;;
8982;SDS011;20979;59.850;10.660;2022-10-31T18:40:52;7.53;;;3.60;;
8982;SDS011;20979;59.850;10.660;2022-10-31T18:43:20;8.27;;;4.00;;
8982;SDS011;20979;59.850;10.660;2022-10-31T18:46:08;8.43;;;4.13;;
8982;SDS011;20979;59.850;10.660;2022-10-31T18:51:21;11.80;;;6.10;;
8982;SDS011;20979;59.850;10.660;2022-10-31T18:53:52;11.77;;;5.80;;
8982;SDS011;20979;59.850;10.660;2022-10-31T18:56:30;10.67;;;5.37;;
8982;SDS011;20979;59.850;10.660;2022-10-31T18:58:58;9.17;;;5.80;;
8982;SDS011;20979;59.850;10.660;2022-10-31T19:17:01;18.67;;;10.53;;
8982;SDS011;20979;59.850;10.660;2022-10-31T19:19:31;18.17;;;9.17;;
8982;SDS011;20979;59.850;10.660;2022-10-31T19:21:58;7.23;;;4.23;;
8982;SDS011;20979;59.850;10.660;2022-10-31T19:24:26;9.07;;;4.17;;
8982;SDS011;20979;59.850;10.660;2022-10-31T19:26:57;9.13;;;5.33;;
8982;SDS011;20979;59.850;10.660;2022-10-31T19:29:24;11.10;;;7.27;;
8982;SDS011;20979;59.850;10.660;2022-10-31T19:41:15;8.33;;;5.37;;
8982;SDS011;20979;59.850;10.660;2022-10-31T19:43:46;13.73;;;8.00;;
8982;SDS011;20979;59.850;10.660;2022-10-31T19:49:01;12.50;;;7.50;;
8982;SDS011;20979;59.850;10.660;2022-10-31T20:00:46;10.83;;;7.17;;
8982;SDS011;20979;59.850;10.660;2022-10-31T20:10:09;8.87;;;4.80;;
8982;SDS011;20979;59.850;10.660;2022-10-31T20:49:11;102.00;;;10.07;;
8982;SDS011;20979;59.850;10.660;2022-10-31T21:00:23;57.83;;;7.73;;
8982;SDS011;20979;59.850;10.660;2022-10-31T21:03:17;106.37;;;9.77;;
8982;SDS011;20979;59.850;10.660;2022-10-31T21:06:03;132.43;;;11.20;;
8982;SDS011;20979;59.850;10.660;2022-10-31T21:14:31;108.97;;;11.00;;
8982;SDS011;20979;59.850;10.660;2022-10-31T21:16:58;120.83;;;11.67;;
8982;SDS011;20979;59.850;10.660;2022-10-31T21:19:40;87.27;;;10.33;;
8982;SDS011;20979;59.850;10.660;2022-10-31T21:30:55;38.53;;;6.07;;
8982;SDS011;20979;59.850;10.660;2022-10-31T21:33:31;43.90;;;7.17;;
8982;SDS011;20979;59.850;10.660;2022-10-31T21:35:59;22.20;;;6.03;;
8982;SDS011;20979;59.850;10.660;2022-10-31T21:38:40;35.97;;;5.77;;
8982;SDS011;20979;59.850;10.660;2022-10-31T21:41:09;82.00;;;8.03;;
8982;SDS011;20979;59.850;10.660;2022-10-31T21:44:24;53.63;;;6.30;;
8982;SDS011;20979;59.850;10.660;2022-10-31T21:52:51;51.43;;;7.00;;
8982;SDS011;20979;59.850;10.660;2022-10-31T21:58:16;21.30;;;5.77;;
8982;SDS011;20979;59.850;10.660;2022-10-31T22:01:04;35.53;;;5.60;;
8982;SDS011;20979;59.850;10.660;2022-10-31T22:04:16;14.10;;;4.90;;
8982;SDS011;20979;59.850;10.660;2022-10-31T22:07:00;70.13;;;8.33;;
8982;SDS011;20979;59.850;10.660;2022-10-31T22:09:32;70.90;;;8.67;;
8982;SDS011;20979;59.850;10.660;2022-10-31T22:12:00;37.87;;;7.10;;
8982;SDS011;20979;59.850;10.660;2022-10-31T22:14:30;63.27;;;7.40;;
8982;SDS011;20979;59.850;10.660;2022-10-31T22:19:57;31.23;;;7.07;;
8982;SDS011;20979;59.850;10.660;2022-10-31T22:22:27;20.07;;;6.37;;
8982;SDS011;20979;59.850;10.660;2022-10-31T22:24:58;28.27;;;6.60;;
8982;SDS011;20979;59.850;10.660;2022-10-31T22:27:26;27.50;;;6.73;;
8982;SDS011;20979;59.850;10.660;2022-10-31T22:29:54;28.67;;;8.07;;
8982;SDS011;20979;59.850;10.660;2022-10-31T22:32:25;36.00;;;6.77;;
8982;SDS011;20979;59.850;10.660;2022-10-31T22:34:52;72.30;;;11.13;;
8982;SDS011;20979;59.850;10.660;2022-10-31T22:37:23;129.67;;;16.37;;
8982;SDS011;20979;59.850;10.660;2022-10-31T22:45:53;86.43;;;13.63;;
8982;SDS011;20979;59.850;10.660;2022-10-31T22:48:24;190.67;;;19.07;;
8982;SDS011;20979;59.850;10.660;2022-10-31T22:50:52;62.67;;;13.53;;
8982;SDS011;20979;59.850;10.660;2022-10-31T22:53:19;201.50;;;20.63;;
8982;SDS011;20979;59.850;10.660;2022-10-31T22:56:05;258.13;;;22.63;;
8982;SDS011;20979;59.850;10.660;2022-10-31T22:58:38;84.37;;;13.80;;
8982;SDS011;20979;59.850;10.660;2022-10-31T23:01:10;39.90;;;11.57;;
8982;SDS011;20979;59.850;10.660;2022-10-31T23:03:52;55.67;;;12.47;;
8982;SDS011;20979;59.850;10.660;2022-10-31T23:06:30;26.03;;;10.10;;
8982;SDS011;20979;59.850;10.660;2022-10-31T23:08:58;23.37;;;10.83;;
8982;SDS011;20979;59.850;10.660;2022-10-31T23:14:45;77.50;;;12.53;;
8982;SDS011;20979;59.850;10.660;2022-10-31T23:19:56;16.20;;;9.73;;
8982;SDS011;20979;59.850;10.660;2022-10-31T23:22:23;29.50;;;8.47;;
8982;SDS011;20979;59.850;10.660;2022-10-31T23:25:00;19.90;;;7.90;;
8982;SDS011;20979;59.850;10.660;2022-10-31T23:27:30;11.47;;;6.70;;
8982;SDS011;20979;59.850;10.660;2022-10-31T23:30:06;11.47;;;7.17;;
8982;SDS011;20979;59.850;10.660;2022-10-31T23:32:47;9.97;;;6.60;;
8982;SDS011;20979;59.850;10.660;2022-10-31T23:35:16;8.10;;;5.50;;
8982;SDS011;20979;59.850;10.660;2022-10-31T23:37:50;12.97;;;5.73;;
8982;SDS011;20979;59.850;10.660;2022-10-31T23:43:02;85.60;;;11.10;;
8982;SDS011;20979;59.850;10.660;2022-10-31T23:45:52;16.17;;;7.93;;
8982;SDS011;20979;59.850;10.660;2022-10-31T23:48:20;34.17;;;8.03;;
8982;SDS011;20979;59.850;10.660;2022-10-31T23:53:31;26.40;;;8.53;;
8982;SDS011;20979;59.850;10.660;2022-10-31T23:56:05;46.37;;;10.47;;
